createdAt,value
2018-09-17T00:01:52.217Z,101402.89
2018-09-17T00:04:21.840Z,101412.45
2018-09-17T00:06:50.547Z,101412.17
2018-09-17T00:09:20.763Z,101411.83
2018-09-17T00:11:50.087Z,101412.31
2018-09-17T00:14:19.129Z,101423.25
2018-09-17T00:16:47.807Z,101421.13
2018-09-17T00:19:17.085Z,101420.31
2018-09-17T00:21:46.421Z,101417.77
2018-09-17T00:24:15.048Z,101417.81
2018-09-17T00:26:43.771Z,101416.98
2018-09-17T00:29:13.748Z,101418.77
2018-09-17T00:31:42.446Z,101425.33
2018-09-17T00:34:11.223Z,101422.22
2018-09-17T00:36:40.897Z,101417.04
2018-09-17T00:39:12.317Z,101407.19
2018-09-17T00:41:40.947Z,101417.55
2018-09-17T00:44:10.239Z,101419.83
2018-09-17T00:46:38.947Z,101412.06
2018-09-17T00:49:07.651Z,101409.87
2018-09-17T00:51:36.630Z,101418.97
2018-09-17T00:54:05.329Z,101413.79
2018-09-17T00:56:34.133Z,101413.36
2018-09-17T00:59:03.015Z,101409.95
2018-09-17T01:01:31.819Z,101408.23
2018-09-17T01:04:00.434Z,101401.44
2018-09-17T01:06:29.195Z,101407.05
2018-09-17T01:08:58.188Z,101404.06
2018-09-17T01:11:26.916Z,101404.06
2018-09-17T01:13:55.513Z,101407.98
2018-09-17T01:16:24.127Z,101413.98
2018-09-17T01:18:52.766Z,101411.43
2018-09-17T01:21:21.340Z,101411.00
2018-09-17T01:23:49.928Z,101410.60
2018-09-17T01:26:18.656Z,101404.56
2018-09-17T01:28:47.272Z,101410.20
2018-09-17T01:31:15.913Z,101414.95
2018-09-17T01:33:45.717Z,101411.54
2018-09-17T01:36:14.414Z,101420.59
2018-09-17T01:38:43.080Z,101412.00
2018-09-17T01:41:11.720Z,101416.28
2018-09-17T01:43:40.432Z,101416.75
2018-09-17T01:46:09.093Z,101413.30
2018-09-17T01:48:37.836Z,101410.75
2018-09-17T01:51:06.719Z,101412.00
2018-09-17T01:53:36.217Z,101412.00
2018-09-17T01:56:04.867Z,101403.41
2018-09-17T01:58:33.526Z,101406.00
2018-09-17T02:01:02.831Z,101409.45
2018-09-17T02:03:31.583Z,101407.33
2018-09-17T02:06:00.732Z,101403.48
2018-09-17T02:08:29.435Z,101393.98
2018-09-17T02:10:58.154Z,101392.30
2018-09-17T02:13:27.389Z,101388.02
2018-09-17T02:15:56.219Z,101393.63
2018-09-17T02:18:24.915Z,101395.38
2018-09-17T02:20:54.126Z,101394.09
2018-09-17T02:23:22.846Z,101389.37
2018-09-17T02:25:51.617Z,101383.77
2018-09-17T02:28:20.895Z,101379.89
2018-09-17T02:30:49.989Z,101381.27
2018-09-17T02:33:19.227Z,101383.46
2018-09-17T02:35:47.865Z,101378.25
2018-09-17T02:38:18.495Z,101384.73
2018-09-17T02:40:47.407Z,101382.14
2018-09-17T02:43:16.140Z,101389.44
2018-09-17T02:45:45.555Z,101385.55
2018-09-17T02:48:14.127Z,101383.43
2018-09-17T02:50:44.045Z,101377.83
2018-09-17T02:53:12.845Z,101378.69
2018-09-17T02:55:41.637Z,101377.86
2018-09-17T02:58:10.268Z,101373.11
2018-09-17T03:00:39.448Z,101375.27
2018-09-17T03:03:08.316Z,101373.05
2018-09-17T03:05:38.019Z,101378.16
2018-09-17T03:08:07.091Z,101372.89
2018-09-17T03:10:35.697Z,101376.70
2018-09-17T03:13:05.148Z,101377.09
2018-09-17T03:15:47.855Z,101380.55
2018-09-17T03:18:17.555Z,101384.83
2018-09-17T03:20:47.329Z,101391.27
2018-09-17T03:23:16.068Z,101400.36
2018-09-17T03:25:45.323Z,101405.06
2018-09-17T03:28:15.154Z,101403.34
2018-09-17T03:30:43.823Z,101402.08
2018-09-17T03:33:12.703Z,101402.98
2018-09-17T03:35:41.398Z,101405.17
2018-09-17T03:38:26.632Z,101401.75
2018-09-17T03:40:55.763Z,101404.38
2018-09-17T03:43:24.482Z,101403.11
2018-09-17T03:45:53.144Z,101397.54
2018-09-17T03:48:21.996Z,101398.43
2018-09-17T03:50:50.788Z,101403.14
2018-09-17T03:53:19.999Z,101404.47
2018-09-17T03:55:48.935Z,101403.61
2018-09-17T03:58:17.897Z,101408.78
2018-09-17T04:00:46.904Z,101398.00
2018-09-17T04:03:15.648Z,101406.19
2018-09-17T04:05:44.628Z,101401.41
2018-09-17T04:08:13.879Z,101399.63
2018-09-17T04:10:42.661Z,101395.38
2018-09-17T04:13:11.834Z,101391.93
2018-09-17T04:15:40.728Z,101398.83
2018-09-17T04:18:09.617Z,101400.09
2018-09-17T04:20:39.458Z,101396.24
2018-09-17T04:23:08.102Z,101391.06
2018-09-17T04:25:37.055Z,101384.14
2018-09-17T04:28:05.929Z,101384.56
2018-09-17T04:30:35.684Z,101378.00
2018-09-17T04:33:05.804Z,101383.92
2018-09-17T04:35:35.053Z,101380.41
2018-09-17T04:38:04.536Z,101382.63
2018-09-17T04:40:33.293Z,101383.93
2018-09-17T04:43:01.866Z,101380.98
2018-09-17T04:45:30.936Z,101374.51
2018-09-17T04:47:59.962Z,101377.63
2018-09-17T04:50:29.101Z,101377.23
2018-09-17T04:52:59.327Z,101380.25
2018-09-17T04:55:29.987Z,101384.60
2018-09-17T04:57:59.544Z,101392.39
2018-09-17T05:00:28.302Z,101394.12
2018-09-17T05:02:57.338Z,101392.85
2018-09-17T05:05:26.829Z,101401.91
2018-09-17T05:07:56.306Z,101407.91
2018-09-17T05:10:25.278Z,101404.47
2018-09-17T05:12:54.733Z,101401.88
2018-09-17T05:15:23.724Z,101407.08
2018-09-17T05:17:53.119Z,101411.37
2018-09-17T05:20:21.954Z,101409.20
2018-09-17T05:22:50.797Z,101410.97
2018-09-17T05:25:21.362Z,101410.11
2018-09-17T05:27:50.424Z,101401.88
2018-09-17T05:30:20.056Z,101409.61
2018-09-17T05:32:49.055Z,101406.59
2018-09-17T05:35:17.900Z,101408.78
2018-09-17T05:37:46.758Z,101409.15
2018-09-17T05:40:15.868Z,101418.17
2018-09-17T05:42:44.467Z,101415.98
2018-09-17T05:45:13.840Z,101417.22
2018-09-17T05:47:42.798Z,101414.13
2018-09-17T05:50:11.595Z,101420.13
2018-09-17T05:52:40.346Z,101422.25
2018-09-17T05:55:09.010Z,101431.31
2018-09-17T05:57:37.900Z,101431.67
2018-09-17T06:00:07.613Z,101429.52
2018-09-17T06:02:36.966Z,101437.65
2018-09-17T06:05:05.696Z,101439.80
2018-09-17T06:07:34.322Z,101444.95
2018-09-17T06:10:03.194Z,101448.37
2018-09-17T06:12:31.830Z,101449.63
2018-09-17T06:15:00.577Z,101441.85
2018-09-17T06:17:29.413Z,101446.13
2018-09-17T06:19:58.184Z,101440.12
2018-09-17T06:22:27.738Z,101441.77
2018-09-17T06:24:56.390Z,101444.79
2018-09-17T06:27:25.112Z,101440.83
2018-09-17T06:29:53.743Z,101441.65
2018-09-17T06:32:22.377Z,101433.41
2018-09-17T06:34:51.754Z,101440.27
2018-09-17T06:37:23.238Z,101442.82
2018-09-17T06:39:51.905Z,101452.19
2018-09-17T06:42:21.259Z,101455.09
2018-09-17T06:44:50.193Z,101451.97
2018-09-17T06:47:19.480Z,101454.52
2018-09-17T06:49:48.342Z,101454.41
2018-09-17T06:52:17.658Z,101448.27
2018-09-17T06:54:46.441Z,101454.22
2018-09-17T06:57:15.231Z,101455.47
2018-09-17T06:59:44.669Z,101470.11
2018-09-17T07:02:13.370Z,101466.22
2018-09-17T07:04:42.225Z,101463.15
2018-09-17T07:07:11.502Z,101466.61
2018-09-17T07:09:40.828Z,101471.31
2018-09-17T07:12:09.585Z,101470.02
2018-09-17T07:14:38.702Z,101468.67
2018-09-17T07:17:09.691Z,101472.50
2018-09-17T07:19:38.423Z,101479.36
2018-09-17T07:22:07.401Z,101479.73
2018-09-17T07:24:36.000Z,101477.52
2018-09-17T07:27:04.750Z,101483.08
2018-09-17T07:29:34.495Z,101484.81
2018-09-17T07:32:04.330Z,101482.12
2018-09-17T07:34:33.106Z,101481.63
2018-09-17T07:37:02.859Z,101485.94
2018-09-17T07:39:31.556Z,101479.02
2018-09-17T07:42:03.166Z,101482.44
2018-09-17T07:44:31.983Z,101485.84
2018-09-17T07:47:01.773Z,101486.20
2018-09-17T07:49:31.420Z,101487.81
2018-09-17T07:52:00.927Z,101486.41
2018-09-17T07:54:29.497Z,101484.56
2018-09-17T07:56:58.690Z,101480.91
2018-09-17T07:59:27.379Z,101483.80
2018-09-17T08:01:56.548Z,101475.81
2018-09-17T08:04:26.159Z,101473.05
2018-09-17T08:06:54.811Z,101471.55
2018-09-17T08:09:24.321Z,101472.65
2018-09-17T08:11:53.116Z,101472.92
2018-09-17T08:14:22.206Z,101477.57
2018-09-17T08:16:51.970Z,101477.92
2018-09-17T08:19:21.043Z,101472.19
2018-09-17T08:21:50.153Z,101475.90
2018-09-17T08:24:19.543Z,101477.53
2018-09-17T08:26:49.098Z,101475.67
2018-09-17T08:29:17.739Z,101470.82
2018-09-17T08:31:48.658Z,101477.67
2018-09-17T08:34:17.756Z,101478.03
2018-09-17T08:36:46.378Z,101478.80
2018-09-17T08:39:15.886Z,101477.37
2018-09-17T08:41:44.861Z,101477.26
2018-09-17T08:44:13.636Z,101484.51
2018-09-17T08:46:42.253Z,101475.33
2018-09-17T08:49:15.202Z,101469.14
2018-09-17T08:51:44.368Z,101475.05
2018-09-17T08:54:13.097Z,101474.44
2018-09-17T08:56:49.918Z,101475.59
2018-09-17T08:59:24.101Z,101462.30
2018-09-17T09:01:58.108Z,101460.37
2018-09-17T09:04:27.372Z,101455.34
2018-09-17T09:07:00.231Z,101448.97
2018-09-17T09:09:28.937Z,101450.87
2018-09-17T09:12:04.512Z,101447.98
2018-09-17T09:14:38.486Z,101447.69
2018-09-17T09:17:08.569Z,101443.05
2018-09-17T09:19:37.757Z,101441.47
2018-09-17T09:22:06.699Z,101439.86
2018-09-17T09:24:35.873Z,101437.80
2018-09-17T09:27:05.628Z,101438.84
2018-09-17T09:29:34.315Z,101442.12
2018-09-17T09:32:03.303Z,101434.98
2018-09-17T09:34:31.978Z,101438.33
2018-09-17T09:37:00.639Z,101439.47
2018-09-17T09:39:29.923Z,101442.27
2018-09-17T09:41:59.260Z,101431.62
2018-09-17T09:44:28.789Z,101436.70
2018-09-17T09:46:57.506Z,101433.06
2018-09-17T09:49:26.363Z,101431.97
2018-09-17T09:51:54.999Z,101433.10
2018-09-17T09:54:23.821Z,101424.58
2018-09-17T09:56:52.603Z,101423.88
2018-09-17T09:59:22.103Z,101426.92
2018-09-17T10:01:56.969Z,101421.75
2018-09-17T10:04:25.659Z,101423.73
2018-09-17T10:06:54.652Z,101419.55
2018-09-17T10:09:28.658Z,101411.10
2018-09-17T10:12:02.695Z,101410.20
2018-09-17T10:16:46.553Z,101416.72
2018-09-17T10:19:20.698Z,101412.34
2018-09-17T10:21:49.972Z,101407.28
2018-09-17T10:24:19.279Z,101405.81
2018-09-17T10:26:49.056Z,101404.38
2018-09-17T10:29:18.014Z,101402.61
2018-09-17T10:31:46.767Z,101401.55
2018-09-17T10:34:15.570Z,101401.80
2018-09-17T10:36:45.456Z,101394.27
2018-09-17T10:39:14.844Z,101392.80
2018-09-17T10:41:43.738Z,101394.88
2018-09-17T10:49:09.435Z,101393.58
2018-09-17T10:51:39.964Z,101390.05
2018-09-17T10:54:08.798Z,101388.90
2018-09-17T10:56:37.544Z,101385.08
2018-09-17T10:59:08.295Z,101383.34
2018-09-17T11:01:38.473Z,101378.84
2018-09-17T11:04:08.525Z,101370.81
2018-09-17T11:06:38.585Z,101371.39
2018-09-17T11:09:10.372Z,101375.00
2018-09-17T11:11:39.257Z,101372.97
2018-09-17T11:14:09.232Z,101365.37
2018-09-17T11:16:38.194Z,101364.57
2018-09-17T11:19:07.011Z,101357.99
2018-09-17T11:21:35.688Z,101354.58
2018-09-17T11:24:04.409Z,101345.00
2018-09-17T11:26:33.884Z,101353.58
2018-09-17T11:29:02.851Z,101352.23
2018-09-17T11:31:32.565Z,101354.00
2018-09-17T11:34:01.857Z,101346.73
2018-09-17T11:36:31.507Z,101333.90
2018-09-17T11:39:00.235Z,101337.89
2018-09-17T11:41:28.968Z,101340.57
2018-09-17T11:43:57.706Z,101331.48
2018-09-17T11:46:26.297Z,101340.83
2018-09-17T11:48:54.817Z,101332.34
2018-09-17T11:51:23.443Z,101329.92
2018-09-17T11:53:52.213Z,101333.31
2018-09-17T11:56:21.264Z,101318.17
2018-09-17T11:58:50.052Z,101325.83
2018-09-17T12:01:25.873Z,101319.06
2018-09-17T12:03:59.911Z,101317.85
2018-09-17T12:06:34.150Z,101314.92
2018-09-17T12:09:03.264Z,101312.39
2018-09-17T12:11:31.977Z,101315.91
2018-09-17T12:14:00.973Z,101315.41
2018-09-17T12:16:29.769Z,101306.16
2018-09-17T12:18:58.359Z,101309.20
2018-09-17T12:21:27.424Z,101307.56
2018-09-17T12:23:55.979Z,101305.53
2018-09-17T12:26:24.657Z,101299.98
2018-09-17T12:28:53.261Z,101302.05
2018-09-17T12:31:22.421Z,101296.62
2018-09-17T12:33:51.382Z,101287.99
2018-09-17T12:36:19.900Z,101292.16
2018-09-17T12:38:48.694Z,101283.11
2018-09-17T12:41:18.177Z,101276.41
2018-09-17T12:43:47.425Z,101281.33
2018-09-17T12:46:16.244Z,101280.87
2018-09-17T12:48:44.808Z,101277.26
2018-09-17T12:51:14.481Z,101274.88
2018-09-17T12:53:43.990Z,101285.66
2018-09-17T12:56:13.908Z,101277.41
2018-09-17T12:58:43.488Z,101271.60
2018-09-17T13:01:12.502Z,101270.31
2018-09-17T13:03:41.219Z,101258.48
2018-09-17T13:06:10.897Z,101264.61
2018-09-17T13:08:39.628Z,101258.13
2018-09-17T13:11:08.428Z,101254.23
2018-09-17T13:13:39.804Z,101248.44
2018-09-17T13:16:09.407Z,101246.95
2018-09-17T13:18:39.246Z,101251.97
2018-09-17T13:21:07.902Z,101254.95
2018-09-17T13:23:36.915Z,101246.89
2018-09-17T13:26:06.622Z,101242.17
2018-09-17T13:28:35.227Z,101239.07
2018-09-17T13:31:05.369Z,101242.09
2018-09-17T13:33:33.943Z,101247.86
2018-09-17T13:36:02.910Z,101253.05
2018-09-17T13:38:31.526Z,101251.13
2018-09-17T13:41:00.439Z,101248.45
2018-09-17T13:43:30.189Z,101249.22
2018-09-17T13:45:59.208Z,101244.16
2018-09-17T13:48:27.848Z,101244.94
2018-09-17T13:50:58.344Z,101244.27
2018-09-17T13:53:27.065Z,101242.30
2018-09-17T13:55:56.431Z,101238.57
2018-09-17T13:58:25.159Z,101235.46
2018-09-17T14:00:54.128Z,101230.27
2018-09-17T14:03:22.895Z,101227.81
2018-09-17T14:05:53.832Z,101230.84
2018-09-17T14:08:22.504Z,101217.83
2018-09-17T14:10:51.859Z,101220.73
2018-09-17T14:13:20.861Z,101220.81
2018-09-17T14:15:54.769Z,101218.49
2018-09-17T14:18:24.136Z,101224.71
2018-09-17T14:20:53.946Z,101224.72
2018-09-17T14:23:22.568Z,101227.16
2018-09-17T14:25:52.160Z,101214.22
2018-09-17T14:28:21.034Z,101214.30
2018-09-17T14:30:52.721Z,101213.75
2018-09-17T14:33:26.551Z,101212.43
2018-09-17T14:35:55.681Z,101210.98
2018-09-17T14:38:24.760Z,101201.39
2018-09-17T14:40:53.925Z,101201.41
2018-09-17T14:43:23.304Z,101199.98
2018-09-17T14:45:52.227Z,101199.06
2018-09-17T14:48:20.911Z,101187.88
2018-09-17T14:50:49.582Z,101188.64
2018-09-17T14:53:19.109Z,101183.17
2018-09-17T14:55:47.771Z,101180.80
2018-09-17T14:58:16.354Z,101180.33
2018-09-17T15:00:45.134Z,101169.50
2018-09-17T15:03:14.281Z,101173.14
2018-09-17T15:05:43.904Z,101174.64
2018-09-17T15:08:15.481Z,101170.14
2018-09-17T15:10:44.091Z,101170.23
2018-09-17T15:13:13.452Z,101167.12
2018-09-17T15:15:46.082Z,101166.00
2018-09-17T15:18:18.645Z,101172.69
2018-09-17T15:20:47.388Z,101171.77
2018-09-17T15:23:16.896Z,101166.03
2018-09-17T15:25:45.815Z,101159.69
2018-09-17T15:28:15.299Z,101162.06
2018-09-17T15:30:44.104Z,101157.72
2018-09-17T15:33:13.389Z,101163.73
2018-09-17T15:35:43.071Z,101161.83
2018-09-17T15:38:13.833Z,101163.78
2018-09-17T15:40:49.175Z,101168.81
2018-09-17T15:43:21.812Z,101158.73
2018-09-17T15:45:52.637Z,101159.83
2018-09-17T15:48:22.117Z,101159.95
2018-09-17T15:50:51.569Z,101160.58
2018-09-17T15:53:20.230Z,101158.87
2018-09-17T15:55:50.343Z,101156.33
2018-09-17T15:58:20.878Z,101152.06
2018-09-17T16:00:51.663Z,101149.57
2018-09-17T16:03:27.304Z,101156.64
2018-09-17T16:05:56.055Z,101150.20
2018-09-17T16:08:26.091Z,101146.45
2018-09-17T16:10:54.636Z,101150.59
2018-09-17T16:13:23.312Z,101150.31
2018-09-17T16:15:52.130Z,101140.38
2018-09-17T16:18:21.060Z,101142.16
2018-09-17T16:20:51.978Z,101138.78
2018-09-17T16:23:20.720Z,101142.83
2018-09-17T16:25:50.139Z,101138.49
2018-09-17T16:28:18.827Z,101145.52
2018-09-17T16:30:48.308Z,101136.88
2018-09-17T16:33:19.499Z,101133.02
2018-09-17T16:35:49.267Z,101137.01
2018-09-17T16:38:17.828Z,101137.42
2018-09-17T16:40:47.523Z,101136.09
2018-09-17T16:43:16.255Z,101139.54
2018-09-17T16:45:44.924Z,101139.00
2018-09-17T16:48:14.018Z,101137.20
2018-09-17T16:50:42.918Z,101137.08
2018-09-17T16:53:12.143Z,101133.50
2018-09-17T16:55:41.527Z,101136.48
2018-09-17T16:58:10.316Z,101139.47
2018-09-17T17:00:39.753Z,101139.77
2018-09-17T17:03:09.026Z,101137.13
2018-09-17T17:05:37.834Z,101141.78
2018-09-17T17:08:07.159Z,101138.69
2018-09-17T17:10:35.897Z,101142.56
2018-09-17T17:13:05.404Z,101145.48
2018-09-17T17:15:34.084Z,101148.41
2018-09-17T17:18:03.546Z,101150.56
2018-09-17T17:20:33.123Z,101146.52
2018-09-17T17:23:02.804Z,101149.46
2018-09-17T17:25:31.656Z,101147.98
2018-09-17T17:28:00.251Z,101150.06
2018-09-17T17:30:29.281Z,101152.16
2018-09-17T17:32:58.090Z,101156.04
2018-09-17T17:35:26.914Z,101161.27
2018-09-17T17:37:55.769Z,101152.84
2018-09-17T17:40:25.389Z,101153.56
2018-09-17T17:42:54.540Z,101156.22
2018-09-17T17:45:23.391Z,101161.71
2018-09-17T17:47:52.229Z,101157.69
2018-09-17T17:50:21.044Z,101161.87
2018-09-17T17:52:50.437Z,101164.83
2018-09-17T17:55:19.229Z,101163.05
2018-09-17T17:57:48.369Z,101166.23
2018-09-17T18:00:20.021Z,101165.27
2018-09-17T18:02:48.917Z,101167.36
2018-09-17T18:05:17.700Z,101166.30
2018-09-17T18:07:47.912Z,101163.84
2018-09-17T18:10:16.599Z,101160.98
2018-09-17T18:12:45.695Z,101159.88
2018-09-17T18:15:15.041Z,101161.80
2018-09-17T18:17:44.841Z,101161.18
2018-09-17T18:20:13.530Z,101158.73
2018-09-17T18:22:42.297Z,101154.19
2018-09-17T18:25:12.696Z,101157.29
2018-09-17T18:27:42.974Z,101156.29
2018-09-17T18:30:12.398Z,101155.18
2018-09-17T18:32:41.598Z,101157.01
2018-09-17T18:35:10.367Z,101148.55
2018-09-17T18:37:39.673Z,101154.38
2018-09-17T18:40:08.942Z,101154.59
2018-09-17T18:42:39.265Z,101150.84
2018-09-17T18:45:08.967Z,101154.45
2018-09-17T18:47:41.623Z,101147.81
2018-09-17T18:50:10.928Z,101151.58
2018-09-17T18:52:39.694Z,101143.01
2018-09-17T18:55:09.679Z,101145.77
2018-09-17T18:57:38.376Z,101145.02
2018-09-17T19:00:10.327Z,101144.27
2018-09-17T19:02:39.282Z,101140.98
2018-09-17T19:05:11.840Z,101144.14
2018-09-17T19:07:40.601Z,101146.55
2018-09-17T19:10:10.140Z,101145.38
2018-09-17T19:12:39.374Z,101144.77
2018-09-17T19:15:14.896Z,101149.54
2018-09-17T19:17:44.632Z,101146.21
2018-09-17T19:20:13.898Z,101142.85
2018-09-17T19:22:48.555Z,101143.88
2018-09-17T19:25:17.455Z,101142.27
2018-09-17T19:27:52.395Z,101138.87
2018-09-17T19:30:22.257Z,101145.48
2018-09-17T19:32:52.196Z,101146.86
2018-09-17T19:35:21.072Z,101149.16
2018-09-17T19:37:56.158Z,101144.90
2018-09-17T19:40:24.958Z,101145.86
2018-09-17T19:42:53.858Z,101149.00
2018-09-17T19:45:28.207Z,101149.10
2018-09-17T19:47:57.670Z,101148.82
2018-09-17T19:50:31.556Z,101151.17
2018-09-17T19:53:02.121Z,101152.95
2018-09-17T19:55:33.047Z,101145.75
2018-09-17T19:58:08.879Z,101140.16
2018-09-17T20:00:38.265Z,101143.23
2018-09-17T20:03:07.034Z,101143.59
2018-09-17T20:05:40.934Z,101145.33
2018-09-17T20:08:09.661Z,101141.45
2018-09-17T20:10:38.649Z,101144.06
2018-09-17T20:13:07.700Z,101147.59
2018-09-17T20:15:36.644Z,101147.30
2018-09-17T20:18:05.286Z,101144.77
2018-09-17T20:20:34.484Z,101140.56
2018-09-17T20:23:04.437Z,101139.33
2018-09-17T20:25:34.161Z,101139.89
2018-09-17T20:28:03.098Z,101146.15
2018-09-17T20:30:32.159Z,101140.55
2018-09-17T20:33:01.903Z,101134.23
2018-09-17T20:35:30.620Z,101136.01
2018-09-17T20:37:59.647Z,101129.23
2018-09-17T20:40:29.105Z,101125.05
2018-09-17T20:42:57.966Z,101117.38
2018-09-17T20:45:26.783Z,101122.65
2018-09-17T20:47:56.136Z,101124.92
2018-09-17T20:50:25.311Z,101121.14
2018-09-17T20:52:54.365Z,101122.12
2018-09-17T20:55:23.331Z,101116.50
2018-09-17T20:57:52.529Z,101119.69
2018-09-17T21:00:21.649Z,101119.27
2018-09-17T21:02:52.645Z,101112.97
2018-09-17T21:05:21.798Z,101114.86
2018-09-17T21:07:51.320Z,101118.79
2018-09-17T21:10:20.794Z,101118.44
2018-09-17T21:12:50.368Z,101117.66
2018-09-17T21:15:19.046Z,101113.76
2018-09-17T21:17:48.273Z,101114.31
2018-09-17T21:20:19.388Z,101112.66
2018-09-17T21:22:49.224Z,101114.75
2018-09-17T21:25:18.763Z,101115.20
2018-09-17T21:27:48.309Z,101110.50
2018-09-17T21:30:18.064Z,101111.87
2018-09-17T21:32:46.729Z,101102.87
2018-09-17T21:35:15.380Z,101105.08
2018-09-17T21:37:44.143Z,101097.34
2018-09-17T21:40:12.936Z,101096.48
2018-09-17T21:42:41.703Z,101093.38
2018-09-17T21:45:10.820Z,101094.34
2018-09-17T21:47:39.947Z,101096.50
2018-09-17T21:50:08.616Z,101085.74
2018-09-17T21:52:37.437Z,101090.53
2018-09-17T21:55:06.400Z,101085.77
2018-09-17T21:57:35.133Z,101083.61
2018-09-17T22:00:03.965Z,101082.38
2018-09-17T22:02:32.847Z,101078.12
2018-09-17T22:05:01.700Z,101077.37
2018-09-17T22:07:30.449Z,101081.27
2018-09-17T22:09:59.275Z,101077.01
2018-09-17T22:12:28.415Z,101076.15
2018-09-17T22:14:57.264Z,101074.33
2018-09-17T22:17:25.883Z,101070.87
2018-09-17T22:19:55.553Z,101073.55
2018-09-17T22:22:24.883Z,101079.52
2018-09-17T22:24:53.573Z,101077.39
2018-09-17T22:27:22.253Z,101076.09
2018-09-17T22:29:50.953Z,101069.98
2018-09-17T22:32:20.634Z,101069.21
2018-09-17T22:34:49.273Z,101064.53
2018-09-17T22:37:17.964Z,101070.12
2018-09-17T22:39:46.708Z,101067.66
2018-09-17T22:42:15.661Z,101061.55
2018-09-17T22:44:45.056Z,101060.37
2018-09-17T22:47:14.555Z,101059.94
2018-09-17T22:49:43.349Z,101059.96
2018-09-17T22:52:12.686Z,101061.31
2018-09-17T22:54:41.462Z,101062.20
2018-09-17T22:57:10.266Z,101060.98
2018-09-17T22:59:38.939Z,101068.80
2018-09-17T23:02:08.056Z,101066.26
2018-09-17T23:04:37.051Z,101066.34
2018-09-17T23:07:06.606Z,101064.31
2018-09-17T23:09:35.385Z,101067.41
2018-09-17T23:12:04.363Z,101067.92
2018-09-17T23:14:32.986Z,101067.48
2018-09-17T23:17:02.781Z,101070.54
2018-09-17T23:19:31.385Z,101067.58
2018-09-17T23:22:00.171Z,101065.14
2018-09-17T23:24:28.902Z,101058.23
2018-09-17T23:26:57.574Z,101065.58
2018-09-17T23:29:26.419Z,101063.92
2018-09-17T23:31:55.135Z,101060.91
2018-09-17T23:34:24.348Z,101057.47
2018-09-17T23:36:54.046Z,101057.97
2018-09-17T23:39:22.587Z,101057.60
2018-09-17T23:41:51.157Z,101057.20
2018-09-17T23:44:19.760Z,101058.12
2018-09-17T23:46:48.480Z,101053.83
2018-09-17T23:49:17.160Z,101061.17
2018-09-17T23:51:45.973Z,101061.32
2018-09-17T23:54:14.694Z,101057.45
2018-09-17T23:56:43.394Z,101056.12
2018-09-17T23:59:12.062Z,101048.52
